sensor_id;sensor_type;location;lat;lon;timestamp;P1;durP1;ratioP1;P2;durP2;ratioP2
44989;SDS011;30723;51.206;3.326;2023-04-12T00:00:06;1.20;;;0.85;;
44989;SDS011;30723;51.206;3.326;2023-04-12T00:02:35;2.47;;;1.00;;
44989;SDS011;30723;51.206;3.326;2023-04-12T00:05:02;2.05;;;0.98;;
44989;SDS011;30723;51.206;3.326;2023-04-12T00:07:29;3.35;;;1.08;;
44989;SDS011;30723;51.206;3.326;2023-04-12T00:09:56;2.38;;;1.13;;
44989;SDS011;30723;51.206;3.326;2023-04-12T00:12:23;1.92;;;1.10;;
44989;SDS011;30723;51.206;3.326;2023-04-12T00:14:49;2.00;;;1.15;;
44989;SDS011;30723;51.206;3.326;2023-04-12T00:17:16;2.42;;;1.58;;
44989;SDS011;30723;51.206;3.326;2023-04-12T00:19:43;0.28;;;0.28;;
44989;SDS011;30723;51.206;3.326;2023-04-12T00:22:11;0.40;;;0.35;;
44989;SDS011;30723;51.206;3.326;2023-04-12T00:24:39;4.85;;;0.77;;
44989;SDS011;30723;51.206;3.326;2023-04-12T00:27:06;1.17;;;0.98;;
44989;SDS011;30723;51.206;3.326;2023-04-12T00:29:33;2.80;;;1.23;;
44989;SDS011;30723;51.206;3.326;2023-04-12T00:32:00;0.57;;;0.57;;
44989;SDS011;30723;51.206;3.326;2023-04-12T00:34:29;3.05;;;0.90;;
44989;SDS011;30723;51.206;3.326;2023-04-12T00:36:56;3.88;;;1.60;;
44989;SDS011;30723;51.206;3.326;2023-04-12T00:39:23;2.20;;;1.67;;
44989;SDS011;30723;51.206;3.326;2023-04-12T00:41:50;10.82;;;1.48;;
44989;SDS011;30723;51.206;3.326;2023-04-12T00:44:17;4.82;;;1.67;;
44989;SDS011;30723;51.206;3.326;2023-04-12T00:46:44;3.67;;;1.23;;
44989;SDS011;30723;51.206;3.326;2023-04-12T00:49:10;6.40;;;1.50;;
44989;SDS011;30723;51.206;3.326;2023-04-12T00:51:37;2.95;;;1.20;;
44989;SDS011;30723;51.206;3.326;2023-04-12T00:54:04;2.00;;;1.45;;
44989;SDS011;30723;51.206;3.326;2023-04-12T00:56:32;6.88;;;1.70;;
44989;SDS011;30723;51.206;3.326;2023-04-12T00:58:59;2.92;;;1.00;;
44989;SDS011;30723;51.206;3.326;2023-04-12T01:01:26;5.25;;;1.50;;
44989;SDS011;30723;51.206;3.326;2023-04-12T01:03:53;1.42;;;1.27;;
44989;SDS011;30723;51.206;3.326;2023-04-12T01:17:07;2.85;;;1.30;;
44989;SDS011;30723;51.206;3.326;2023-04-12T01:19:55;1.77;;;1.13;;
44989;SDS011;30723;51.206;3.326;2023-04-12T01:27:55;1.05;;;0.73;;
44989;SDS011;30723;51.206;3.326;2023-04-12T01:30:27;1.08;;;0.85;;
44989;SDS011;30723;51.206;3.326;2023-04-12T01:32:55;0.95;;;0.52;;
44989;SDS011;30723;51.206;3.326;2023-04-12T01:35:33;0.60;;;0.60;;
44989;SDS011;30723;51.206;3.326;2023-04-12T01:38:10;1.52;;;0.95;;
44989;SDS011;30723;51.206;3.326;2023-04-12T01:40:37;2.63;;;0.90;;
44989;SDS011;30723;51.206;3.326;2023-04-12T01:43:08;7.25;;;1.65;;
44989;SDS011;30723;51.206;3.326;2023-04-12T01:45:38;1.38;;;0.63;;
44989;SDS011;30723;51.206;3.326;2023-04-12T01:48:06;1.52;;;1.05;;
44989;SDS011;30723;51.206;3.326;2023-04-12T01:53:22;3.72;;;0.95;;
44989;SDS011;30723;51.206;3.326;2023-04-12T01:55:57;1.48;;;0.95;;
44989;SDS011;30723;51.206;3.326;2023-04-12T01:58:28;0.40;;;0.40;;
44989;SDS011;30723;51.206;3.326;2023-04-12T02:00:55;0.80;;;0.50;;
44989;SDS011;30723;51.206;3.326;2023-04-12T02:03:23;0.45;;;0.45;;
44989;SDS011;30723;51.206;3.326;2023-04-12T02:05:50;2.03;;;0.80;;
44989;SDS011;30723;51.206;3.326;2023-04-12T02:08:17;1.13;;;1.02;;
44989;SDS011;30723;51.206;3.326;2023-04-12T02:10:43;0.35;;;0.30;;
44989;SDS011;30723;51.206;3.326;2023-04-12T02:13:10;0.73;;;0.40;;
44989;SDS011;30723;51.206;3.326;2023-04-12T02:15:36;1.15;;;0.73;;
44989;SDS011;30723;51.206;3.326;2023-04-12T02:18:04;0.30;;;0.30;;
44989;SDS011;30723;51.206;3.326;2023-04-12T02:20:31;0.73;;;0.40;;
44989;SDS011;30723;51.206;3.326;2023-04-12T02:22:57;1.55;;;0.85;;
44989;SDS011;30723;51.206;3.326;2023-04-12T02:25:25;0.85;;;0.52;;
44989;SDS011;30723;51.206;3.326;2023-04-12T02:27:51;1.52;;;1.25;;
44989;SDS011;30723;51.206;3.326;2023-04-12T02:30:19;1.00;;;0.60;;
44989;SDS011;30723;51.206;3.326;2023-04-12T02:32:45;1.58;;;1.23;;
44989;SDS011;30723;51.206;3.326;2023-04-12T02:35:13;2.67;;;1.33;;
44989;SDS011;30723;51.206;3.326;2023-04-12T02:37:43;0.57;;;0.57;;
44989;SDS011;30723;51.206;3.326;2023-04-12T02:40:11;2.47;;;1.55;;
44989;SDS011;30723;51.206;3.326;2023-04-12T02:42:39;1.83;;;0.82;;
44989;SDS011;30723;51.206;3.326;2023-04-12T02:45:07;1.20;;;1.00;;
44989;SDS011;30723;51.206;3.326;2023-04-12T02:47:35;0.80;;;0.73;;
44989;SDS011;30723;51.206;3.326;2023-04-12T02:50:02;1.27;;;0.93;;
44989;SDS011;30723;51.206;3.326;2023-04-12T02:52:30;1.95;;;1.15;;
44989;SDS011;30723;51.206;3.326;2023-04-12T02:54:57;0.88;;;0.80;;
44989;SDS011;30723;51.206;3.326;2023-04-12T02:57:24;2.58;;;1.42;;
44989;SDS011;30723;51.206;3.326;2023-04-12T02:59:51;1.17;;;0.85;;
44989;SDS011;30723;51.206;3.326;2023-04-12T03:02:19;0.75;;;0.45;;
44989;SDS011;30723;51.206;3.326;2023-04-12T03:04:46;2.92;;;1.40;;
44989;SDS011;30723;51.206;3.326;2023-04-12T03:07:18;0.70;;;0.70;;
44989;SDS011;30723;51.206;3.326;2023-04-12T03:12:15;2.88;;;1.45;;
44989;SDS011;30723;51.206;3.326;2023-04-12T03:14:58;0.65;;;0.65;;
44989;SDS011;30723;51.206;3.326;2023-04-12T03:17:25;1.15;;;0.93;;
44989;SDS011;30723;51.206;3.326;2023-04-12T03:19:51;1.30;;;1.02;;
44989;SDS011;30723;51.206;3.326;2023-04-12T03:22:17;0.85;;;0.57;;
44989;SDS011;30723;51.206;3.326;2023-04-12T03:24:47;0.73;;;0.70;;
44989;SDS011;30723;51.206;3.326;2023-04-12T03:27:13;0.60;;;0.30;;
44989;SDS011;30723;51.206;3.326;2023-04-12T03:29:40;0.88;;;0.70;;
44989;SDS011;30723;51.206;3.326;2023-04-12T03:32:07;1.45;;;0.73;;
44989;SDS011;30723;51.206;3.326;2023-04-12T03:34:35;0.10;;;0.10;;
44989;SDS011;30723;51.206;3.326;2023-04-12T03:37:02;9.52;;;0.55;;
44989;SDS011;30723;51.206;3.326;2023-04-12T03:39:28;0.25;;;0.25;;
44989;SDS011;30723;51.206;3.326;2023-04-12T03:41:55;0.70;;;0.43;;
44989;SDS011;30723;51.206;3.326;2023-04-12T03:44:21;1.40;;;0.43;;
44989;SDS011;30723;51.206;3.326;2023-04-12T03:46:50;0.30;;;0.20;;
44989;SDS011;30723;51.206;3.326;2023-04-12T03:49:17;0.10;;;0.10;;
44989;SDS011;30723;51.206;3.326;2023-04-12T03:51:45;0.05;;;0.05;;
44989;SDS011;30723;51.206;3.326;2023-04-12T03:54:14;0.00;;;0.00;;
44989;SDS011;30723;51.206;3.326;2023-04-12T03:56:41;0.20;;;0.10;;
44989;SDS011;30723;51.206;3.326;2023-04-12T03:59:07;0.15;;;0.13;;
44989;SDS011;30723;51.206;3.326;2023-04-12T04:01:34;8.48;;;0.32;;
44989;SDS011;30723;51.206;3.326;2023-04-12T04:04:01;2.95;;;0.88;;
44989;SDS011;30723;51.206;3.326;2023-04-12T04:06:29;1.75;;;0.60;;
44989;SDS011;30723;51.206;3.326;2023-04-12T04:08:56;4.38;;;2.40;;
44989;SDS011;30723;51.206;3.326;2023-04-12T04:11:23;1.20;;;0.45;;
44989;SDS011;30723;51.206;3.326;2023-04-12T04:13:51;5.05;;;0.75;;
44989;SDS011;30723;51.206;3.326;2023-04-12T04:16:17;5.15;;;0.52;;
44989;SDS011;30723;51.206;3.326;2023-04-12T04:18:44;0.00;;;0.00;;
44989;SDS011;30723;51.206;3.326;2023-04-12T04:21:11;0.20;;;0.20;;
44989;SDS011;30723;51.206;3.326;2023-04-12T04:23:38;0.40;;;0.30;;
44989;SDS011;30723;51.206;3.326;2023-04-12T04:26:09;3.30;;;0.40;;
44989;SDS011;30723;51.206;3.326;2023-04-12T04:28:39;0.15;;;0.15;;
44989;SDS011;30723;51.206;3.326;2023-04-12T04:31:09;0.38;;;0.32;;
44989;SDS011;30723;51.206;3.326;2023-04-12T04:33:37;0.10;;;0.10;;
44989;SDS011;30723;51.206;3.326;2023-04-12T04:36:04;1.23;;;0.75;;
44989;SDS011;30723;51.206;3.326;2023-04-12T04:38:33;0.30;;;0.30;;
44989;SDS011;30723;51.206;3.326;2023-04-12T04:41:00;0.00;;;0.00;;
44989;SDS011;30723;51.206;3.326;2023-04-12T04:43:27;0.00;;;0.00;;
44989;SDS011;30723;51.206;3.326;2023-04-12T04:45:55;0.17;;;0.17;;
44989;SDS011;30723;51.206;3.326;2023-04-12T04:48:23;0.32;;;0.05;;
44989;SDS011;30723;51.206;3.326;2023-04-12T04:50:49;0.10;;;0.08;;
44989;SDS011;30723;51.206;3.326;2023-04-12T04:53:18;0.75;;;0.40;;
44989;SDS011;30723;51.206;3.326;2023-04-12T04:55:46;0.00;;;0.00;;
44989;SDS011;30723;51.206;3.326;2023-04-12T04:58:13;0.00;;;0.00;;
44989;SDS011;30723;51.206;3.326;2023-04-12T05:00:40;0.10;;;0.10;;
44989;SDS011;30723;51.206;3.326;2023-04-12T05:03:10;0.20;;;0.17;;
44989;SDS011;30723;51.206;3.326;2023-04-12T05:05:37;1.58;;;0.57;;
44989;SDS011;30723;51.206;3.326;2023-04-12T05:08:03;0.13;;;0.13;;
44989;SDS011;30723;51.206;3.326;2023-04-12T05:10:29;0.00;;;0.00;;
44989;SDS011;30723;51.206;3.326;2023-04-12T05:12:56;0.00;;;0.00;;
44989;SDS011;30723;51.206;3.326;2023-04-12T05:15:22;0.00;;;0.00;;
44989;SDS011;30723;51.206;3.326;2023-04-12T05:17:48;0.00;;;0.00;;
44989;SDS011;30723;51.206;3.326;2023-04-12T05:20:15;0.00;;;0.00;;
44989;SDS011;30723;51.206;3.326;2023-04-12T05:22:42;0.00;;;0.00;;
44989;SDS011;30723;51.206;3.326;2023-04-12T05:25:09;0.00;;;0.00;;
44989;SDS011;30723;51.206;3.326;2023-04-12T05:27:35;0.00;;;0.00;;
44989;SDS011;30723;51.206;3.326;2023-04-12T05:30:02;0.10;;;0.10;;
44989;SDS011;30723;51.206;3.326;2023-04-12T05:32:31;0.40;;;0.30;;
44989;SDS011;30723;51.206;3.326;2023-04-12T05:34:58;0.70;;;0.10;;
44989;SDS011;30723;51.206;3.326;2023-04-12T05:37:25;20.25;;;1.15;;
44989;SDS011;30723;51.206;3.326;2023-04-12T05:39:52;0.15;;;0.10;;
44989;SDS011;30723;51.206;3.326;2023-04-12T05:42:19;0.00;;;0.00;;
44989;SDS011;30723;51.206;3.326;2023-04-12T05:44:46;0.00;;;0.00;;
44989;SDS011;30723;51.206;3.326;2023-04-12T05:47:13;0.55;;;0.28;;
44989;SDS011;30723;51.206;3.326;2023-04-12T05:49:40;0.00;;;0.00;;
44989;SDS011;30723;51.206;3.326;2023-04-12T05:52:06;0.00;;;0.00;;
44989;SDS011;30723;51.206;3.326;2023-04-12T05:54:33;0.70;;;0.10;;
44989;SDS011;30723;51.206;3.326;2023-04-12T05:57:00;0.20;;;0.20;;
44989;SDS011;30723;51.206;3.326;2023-04-12T05:59:27;0.32;;;0.20;;
44989;SDS011;30723;51.206;3.326;2023-04-12T06:01:54;0.10;;;0.10;;
44989;SDS011;30723;51.206;3.326;2023-04-12T06:04:21;0.00;;;0.00;;
44989;SDS011;30723;51.206;3.326;2023-04-12T06:06:47;0.00;;;0.00;;
44989;SDS011;30723;51.206;3.326;2023-04-12T06:09:14;0.03;;;0.00;;
44989;SDS011;30723;51.206;3.326;2023-04-12T06:11:41;0.10;;;0.10;;
44989;SDS011;30723;51.206;3.326;2023-04-12T06:14:07;0.17;;;0.17;;
44989;SDS011;30723;51.206;3.326;2023-04-12T06:16:34;0.00;;;0.00;;
44989;SDS011;30723;51.206;3.326;2023-04-12T06:19:01;0.35;;;0.30;;
44989;SDS011;30723;51.206;3.326;2023-04-12T06:21:28;12.02;;;0.55;;
44989;SDS011;30723;51.206;3.326;2023-04-12T06:23:55;0.93;;;0.35;;
44989;SDS011;30723;51.206;3.326;2023-04-12T06:26:22;0.00;;;0.00;;
44989;SDS011;30723;51.206;3.326;2023-04-12T06:28:48;1.13;;;0.57;;
44989;SDS011;30723;51.206;3.326;2023-04-12T06:31:15;0.00;;;0.00;;
44989;SDS011;30723;51.206;3.326;2023-04-12T06:33:42;5.93;;;1.45;;
44989;SDS011;30723;51.206;3.326;2023-04-12T06:36:09;3.03;;;1.15;;
44989;SDS011;30723;51.206;3.326;2023-04-12T06:38:36;6.70;;;1.80;;
44989;SDS011;30723;51.206;3.326;2023-04-12T06:41:03;0.50;;;0.17;;
44989;SDS011;30723;51.206;3.326;2023-04-12T06:43:30;0.68;;;0.60;;
44989;SDS011;30723;51.206;3.326;2023-04-12T06:45:56;0.77;;;0.20;;
44989;SDS011;30723;51.206;3.326;2023-04-12T06:48:26;1.85;;;0.68;;
44989;SDS011;30723;51.206;3.326;2023-04-12T06:50:53;1.77;;;1.67;;
44989;SDS011;30723;51.206;3.326;2023-04-12T06:53:20;5.75;;;0.32;;
44989;SDS011;30723;51.206;3.326;2023-04-12T06:55:47;0.00;;;0.00;;
44989;SDS011;30723;51.206;3.326;2023-04-12T06:58:13;2.35;;;0.08;;
44989;SDS011;30723;51.206;3.326;2023-04-12T07:00:40;1.52;;;0.93;;
44989;SDS011;30723;51.206;3.326;2023-04-12T07:03:07;0.00;;;0.00;;
44989;SDS011;30723;51.206;3.326;2023-04-12T07:05:37;0.25;;;0.25;;
44989;SDS011;30723;51.206;3.326;2023-04-12T07:08:04;0.00;;;0.00;;
44989;SDS011;30723;51.206;3.326;2023-04-12T07:10:30;5.93;;;0.75;;
44989;SDS011;30723;51.206;3.326;2023-04-12T07:12:56;0.13;;;0.13;;
44989;SDS011;30723;51.206;3.326;2023-04-12T07:15:27;1.50;;;0.17;;
44989;SDS011;30723;51.206;3.326;2023-04-12T07:17:54;8.82;;;1.92;;
44989;SDS011;30723;51.206;3.326;2023-04-12T07:20:20;0.13;;;0.13;;
44989;SDS011;30723;51.206;3.326;2023-04-12T07:22:47;2.38;;;0.82;;
44989;SDS011;30723;51.206;3.326;2023-04-12T07:25:14;0.85;;;0.75;;
44989;SDS011;30723;51.206;3.326;2023-04-12T07:27:41;1.13;;;0.73;;
44989;SDS011;30723;51.206;3.326;2023-04-12T07:30:08;2.00;;;0.77;;
44989;SDS011;30723;51.206;3.326;2023-04-12T07:32:36;5.13;;;1.90;;
44989;SDS011;30723;51.206;3.326;2023-04-12T07:35:02;6.57;;;2.28;;
44989;SDS011;30723;51.206;3.326;2023-04-12T07:37:30;0.57;;;0.57;;
44989;SDS011;30723;51.206;3.326;2023-04-12T07:39:57;3.53;;;0.13;;
44989;SDS011;30723;51.206;3.326;2023-04-12T07:42:23;2.20;;;2.03;;
44989;SDS011;30723;51.206;3.326;2023-04-12T07:44:50;2.92;;;1.77;;
44989;SDS011;30723;51.206;3.326;2023-04-12T07:47:16;9.02;;;2.78;;
44989;SDS011;30723;51.206;3.326;2023-04-12T07:49:42;21.83;;;3.85;;
44989;SDS011;30723;51.206;3.326;2023-04-12T07:52:09;6.68;;;3.25;;
44989;SDS011;30723;51.206;3.326;2023-04-12T07:54:36;0.10;;;0.10;;
44989;SDS011;30723;51.206;3.326;2023-04-12T07:57:02;4.18;;;1.50;;
44989;SDS011;30723;51.206;3.326;2023-04-12T07:59:29;4.10;;;2.33;;
44989;SDS011;30723;51.206;3.326;2023-04-12T08:01:56;0.73;;;0.70;;
44989;SDS011;30723;51.206;3.326;2023-04-12T08:04:24;10.70;;;6.30;;
44989;SDS011;30723;51.206;3.326;2023-04-12T08:06:52;15.98;;;8.65;;
44989;SDS011;30723;51.206;3.326;2023-04-12T08:09:19;27.52;;;12.55;;
44989;SDS011;30723;51.206;3.326;2023-04-12T08:11:45;11.65;;;6.32;;
44989;SDS011;30723;51.206;3.326;2023-04-12T08:14:12;21.13;;;10.73;;
44989;SDS011;30723;51.206;3.326;2023-04-12T08:16:39;11.70;;;6.65;;
44989;SDS011;30723;51.206;3.326;2023-04-12T08:19:06;20.75;;;12.18;;
44989;SDS011;30723;51.206;3.326;2023-04-12T08:21:32;5.97;;;3.45;;
44989;SDS011;30723;51.206;3.326;2023-04-12T08:23:59;2.97;;;2.22;;
44989;SDS011;30723;51.206;3.326;2023-04-12T08:26:25;6.50;;;3.83;;
44989;SDS011;30723;51.206;3.326;2023-04-12T08:28:54;0.77;;;0.77;;
44989;SDS011;30723;51.206;3.326;2023-04-12T08:31:21;0.40;;;0.40;;
44989;SDS011;30723;51.206;3.326;2023-04-12T08:33:48;2.65;;;1.40;;
44989;SDS011;30723;51.206;3.326;2023-04-12T08:36:15;0.65;;;0.55;;
44989;SDS011;30723;51.206;3.326;2023-04-12T08:38:42;0.13;;;0.13;;
44989;SDS011;30723;51.206;3.326;2023-04-12T08:41:08;0.30;;;0.30;;
44989;SDS011;30723;51.206;3.326;2023-04-12T08:43:36;0.95;;;0.30;;
44989;SDS011;30723;51.206;3.326;2023-04-12T08:46:05;0.00;;;0.00;;
44989;SDS011;30723;51.206;3.326;2023-04-12T08:48:32;0.60;;;0.55;;
44989;SDS011;30723;51.206;3.326;2023-04-12T08:51:00;0.28;;;0.28;;
44989;SDS011;30723;51.206;3.326;2023-04-12T08:53:26;7.05;;;1.40;;
44989;SDS011;30723;51.206;3.326;2023-04-12T08:55:53;0.75;;;0.52;;
44989;SDS011;30723;51.206;3.326;2023-04-12T08:58:20;0.65;;;0.57;;
44989;SDS011;30723;51.206;3.326;2023-04-12T09:00:48;1.45;;;0.45;;
44989;SDS011;30723;51.206;3.326;2023-04-12T09:03:15;3.85;;;1.48;;
44989;SDS011;30723;51.206;3.326;2023-04-12T09:05:42;2.28;;;1.17;;
44989;SDS011;30723;51.206;3.326;2023-04-12T09:08:08;3.67;;;1.02;;
44989;SDS011;30723;51.206;3.326;2023-04-12T09:10:35;4.13;;;0.77;;
44989;SDS011;30723;51.206;3.326;2023-04-12T09:13:05;8.00;;;0.50;;
44989;SDS011;30723;51.206;3.326;2023-04-12T09:15:59;0.90;;;0.57;;
44989;SDS011;30723;51.206;3.326;2023-04-12T09:18:26;1.45;;;0.57;;
44989;SDS011;30723;51.206;3.326;2023-04-12T09:21:26;2.70;;;1.15;;
44989;SDS011;30723;51.206;3.326;2023-04-12T09:23:49;9.20;;;1.15;;
44989;SDS011;30723;51.206;3.326;2023-04-12T09:26:34;4.13;;;1.10;;
44989;SDS011;30723;51.206;3.326;2023-04-12T09:29:01;0.52;;;0.38;;
44989;SDS011;30723;51.206;3.326;2023-04-12T09:31:30;5.18;;;1.60;;
44989;SDS011;30723;51.206;3.326;2023-04-12T09:34:06;2.92;;;0.80;;
44989;SDS011;30723;51.206;3.326;2023-04-12T09:36:40;3.55;;;1.23;;
44989;SDS011;30723;51.206;3.326;2023-04-12T09:39:06;1.27;;;0.30;;
44989;SDS011;30723;51.206;3.326;2023-04-12T09:41:33;2.15;;;0.75;;
44989;SDS011;30723;51.206;3.326;2023-04-12T09:44:00;4.20;;;1.45;;
44989;SDS011;30723;51.206;3.326;2023-04-12T09:46:27;3.83;;;1.30;;
44989;SDS011;30723;51.206;3.326;2023-04-12T09:48:55;1.65;;;0.60;;
44989;SDS011;30723;51.206;3.326;2023-04-12T09:51:24;2.00;;;1.25;;
44989;SDS011;30723;51.206;3.326;2023-04-12T09:56:29;1.85;;;0.98;;
44989;SDS011;30723;51.206;3.326;2023-04-12T09:59:04;1.00;;;0.77;;
44989;SDS011;30723;51.206;3.326;2023-04-12T10:01:34;0.38;;;0.28;;
44989;SDS011;30723;51.206;3.326;2023-04-12T10:04:05;2.00;;;0.57;;
44989;SDS011;30723;51.206;3.326;2023-04-12T10:06:33;2.40;;;0.60;;
44989;SDS011;30723;51.206;3.326;2023-04-12T10:09:03;0.25;;;0.22;;
44989;SDS011;30723;51.206;3.326;2023-04-12T10:11:45;1.45;;;0.95;;
44989;SDS011;30723;51.206;3.326;2023-04-12T10:14:15;7.40;;;0.93;;
44989;SDS011;30723;51.206;3.326;2023-04-12T10:16:43;6.95;;;2.15;;
44989;SDS011;30723;51.206;3.326;2023-04-12T10:19:11;30.75;;;9.63;;
44989;SDS011;30723;51.206;3.326;2023-04-12T10:21:38;21.85;;;7.43;;
44989;SDS011;30723;51.206;3.326;2023-04-12T10:24:06;13.35;;;2.67;;
44989;SDS011;30723;51.206;3.326;2023-04-12T10:26:33;0.50;;;0.30;;
44989;SDS011;30723;51.206;3.326;2023-04-12T10:31:52;0.57;;;0.57;;
44989;SDS011;30723;51.206;3.326;2023-04-12T10:34:25;0.00;;;0.00;;
44989;SDS011;30723;51.206;3.326;2023-04-12T10:36:54;0.50;;;0.20;;
44989;SDS011;30723;51.206;3.326;2023-04-12T10:42:20;0.93;;;0.70;;
44989;SDS011;30723;51.206;3.326;2023-04-12T10:44:51;0.10;;;0.10;;
44989;SDS011;30723;51.206;3.326;2023-04-12T10:55:33;0.20;;;0.20;;
44989;SDS011;30723;51.206;3.326;2023-04-12T10:57:59;0.60;;;0.32;;
44989;SDS011;30723;51.206;3.326;2023-04-12T11:00:37;1.55;;;0.85;;
44989;SDS011;30723;51.206;3.326;2023-04-12T11:03:21;3.25;;;0.80;;
44989;SDS011;30723;51.206;3.326;2023-04-12T11:05:58;0.28;;;0.10;;
44989;SDS011;30723;51.206;3.326;2023-04-12T11:08:28;0.00;;;0.00;;
44989;SDS011;30723;51.206;3.326;2023-04-12T11:11:03;0.30;;;0.30;;
44989;SDS011;30723;51.206;3.326;2023-04-12T11:13:43;1.02;;;0.40;;
44989;SDS011;30723;51.206;3.326;2023-04-12T11:16:10;5.68;;;0.73;;
44989;SDS011;30723;51.206;3.326;2023-04-12T11:18:39;0.88;;;0.43;;
44989;SDS011;30723;51.206;3.326;2023-04-12T11:21:05;1.75;;;0.90;;
44989;SDS011;30723;51.206;3.326;2023-04-12T11:23:31;10.10;;;5.15;;
44989;SDS011;30723;51.206;3.326;2023-04-12T11:26:01;0.00;;;0.00;;
44989;SDS011;30723;51.206;3.326;2023-04-12T11:28:28;2.78;;;1.90;;
44989;SDS011;30723;51.206;3.326;2023-04-12T11:30:54;1.20;;;0.85;;
44989;SDS011;30723;51.206;3.326;2023-04-12T11:33:30;1.50;;;0.20;;
44989;SDS011;30723;51.206;3.326;2023-04-12T11:35:57;0.00;;;0.00;;
44989;SDS011;30723;51.206;3.326;2023-04-12T11:38:23;0.55;;;0.00;;
44989;SDS011;30723;51.206;3.326;2023-04-12T11:40:49;0.10;;;0.10;;
44989;SDS011;30723;51.206;3.326;2023-04-12T11:43:18;0.00;;;0.00;;
44989;SDS011;30723;51.206;3.326;2023-04-12T11:45:45;0.43;;;0.22;;
44989;SDS011;30723;51.206;3.326;2023-04-12T11:48:12;0.22;;;0.22;;
44989;SDS011;30723;51.206;3.326;2023-04-12T11:50:37;2.05;;;0.30;;
44989;SDS011;30723;51.206;3.326;2023-04-12T11:53:10;0.17;;;0.15;;
44989;SDS011;30723;51.206;3.326;2023-04-12T11:55:37;0.00;;;0.00;;
44989;SDS011;30723;51.206;3.326;2023-04-12T11:58:03;0.10;;;0.10;;
44989;SDS011;30723;51.206;3.326;2023-04-12T12:00:31;10.90;;;4.15;;
44989;SDS011;30723;51.206;3.326;2023-04-12T12:02:57;31.83;;;12.77;;
44989;SDS011;30723;51.206;3.326;2023-04-12T12:05:24;9.48;;;4.28;;
44989;SDS011;30723;51.206;3.326;2023-04-12T12:07:51;9.98;;;5.85;;
44989;SDS011;30723;51.206;3.326;2023-04-12T12:10:18;9.48;;;4.32;;
44989;SDS011;30723;51.206;3.326;2023-04-12T12:12:45;49.65;;;18.98;;
44989;SDS011;30723;51.206;3.326;2023-04-12T12:15:13;23.13;;;10.05;;
44989;SDS011;30723;51.206;3.326;2023-04-12T12:17:40;3.80;;;1.58;;
44989;SDS011;30723;51.206;3.326;2023-04-12T12:20:07;3.35;;;0.30;;
44989;SDS011;30723;51.206;3.326;2023-04-12T12:22:44;1.30;;;0.38;;
44989;SDS011;30723;51.206;3.326;2023-04-12T12:25:11;1.27;;;0.63;;
44989;SDS011;30723;51.206;3.326;2023-04-12T12:27:37;0.30;;;0.10;;
44989;SDS011;30723;51.206;3.326;2023-04-12T12:32:36;2.40;;;0.60;;
44989;SDS011;30723;51.206;3.326;2023-04-12T12:35:23;0.45;;;0.40;;
44989;SDS011;30723;51.206;3.326;2023-04-12T12:37:53;1.48;;;0.45;;
44989;SDS011;30723;51.206;3.326;2023-04-12T12:40:29;0.83;;;0.50;;
44989;SDS011;30723;51.206;3.326;2023-04-12T12:43:00;1.38;;;0.25;;
44989;SDS011;30723;51.206;3.326;2023-04-12T12:45:28;0.25;;;0.15;;
44989;SDS011;30723;51.206;3.326;2023-04-12T12:50:29;4.32;;;0.85;;
44989;SDS011;30723;51.206;3.326;2023-04-12T12:52:57;0.63;;;0.40;;
44989;SDS011;30723;51.206;3.326;2023-04-12T12:55:25;0.50;;;0.45;;
44989;SDS011;30723;51.206;3.326;2023-04-12T12:57:53;1.20;;;0.38;;
44989;SDS011;30723;51.206;3.326;2023-04-12T13:00:24;0.20;;;0.20;;
44989;SDS011;30723;51.206;3.326;2023-04-12T13:02:51;5.07;;;0.47;;
44989;SDS011;30723;51.206;3.326;2023-04-12T13:05:17;4.43;;;4.10;;
44989;SDS011;30723;51.206;3.326;2023-04-12T13:07:44;0.00;;;0.00;;
44989;SDS011;30723;51.206;3.326;2023-04-12T13:10:10;1.88;;;0.65;;
44989;SDS011;30723;51.206;3.326;2023-04-12T13:12:37;0.40;;;0.28;;
44989;SDS011;30723;51.206;3.326;2023-04-12T13:15:04;3.38;;;0.68;;
44989;SDS011;30723;51.206;3.326;2023-04-12T13:17:33;0.43;;;0.10;;
44989;SDS011;30723;51.206;3.326;2023-04-12T13:19:59;10.00;;;0.65;;
44989;SDS011;30723;51.206;3.326;2023-04-12T13:22:28;0.73;;;0.40;;
44989;SDS011;30723;51.206;3.326;2023-04-12T13:24:55;8.35;;;0.88;;
44989;SDS011;30723;51.206;3.326;2023-04-12T13:27:21;10.55;;;1.35;;
44989;SDS011;30723;51.206;3.326;2023-04-12T13:29:48;4.43;;;0.70;;
44989;SDS011;30723;51.206;3.326;2023-04-12T13:32:14;1.70;;;0.40;;
44989;SDS011;30723;51.206;3.326;2023-04-12T13:34:41;2.05;;;0.77;;
44989;SDS011;30723;51.206;3.326;2023-04-12T13:37:07;4.28;;;0.90;;
44989;SDS011;30723;51.206;3.326;2023-04-12T13:39:33;0.55;;;0.50;;
44989;SDS011;30723;51.206;3.326;2023-04-12T13:42:00;0.50;;;0.30;;
44989;SDS011;30723;51.206;3.326;2023-04-12T13:44:27;2.15;;;0.88;;
44989;SDS011;30723;51.206;3.326;2023-04-12T13:46:54;11.18;;;3.17;;
44989;SDS011;30723;51.206;3.326;2023-04-12T13:49:21;6.20;;;3.22;;
44989;SDS011;30723;51.206;3.326;2023-04-12T13:51:47;9.80;;;3.63;;
44989;SDS011;30723;51.206;3.326;2023-04-12T13:54:14;4.55;;;2.17;;
44989;SDS011;30723;51.206;3.326;2023-04-12T13:56:42;1.45;;;1.02;;
44989;SDS011;30723;51.206;3.326;2023-04-12T13:59:08;5.85;;;1.73;;
44989;SDS011;30723;51.206;3.326;2023-04-12T14:01:35;4.25;;;2.42;;
44989;SDS011;30723;51.206;3.326;2023-04-12T14:04:01;7.13;;;2.53;;
44989;SDS011;30723;51.206;3.326;2023-04-12T14:06:30;1.17;;;1.08;;
44989;SDS011;30723;51.206;3.326;2023-04-12T14:08:57;1.95;;;0.50;;
44989;SDS011;30723;51.206;3.326;2023-04-12T14:11:24;2.70;;;1.08;;
44989;SDS011;30723;51.206;3.326;2023-04-12T14:13:50;0.43;;;0.30;;
44989;SDS011;30723;51.206;3.326;2023-04-12T14:16:17;2.28;;;0.20;;
44989;SDS011;30723;51.206;3.326;2023-04-12T14:18:44;4.50;;;1.67;;
44989;SDS011;30723;51.206;3.326;2023-04-12T14:21:11;3.05;;;1.05;;
44989;SDS011;30723;51.206;3.326;2023-04-12T14:23:38;5.55;;;1.05;;
44989;SDS011;30723;51.206;3.326;2023-04-12T14:26:05;0.70;;;0.40;;
44989;SDS011;30723;51.206;3.326;2023-04-12T14:28:33;3.33;;;1.05;;
44989;SDS011;30723;51.206;3.326;2023-04-12T14:31:00;1.30;;;0.63;;
44989;SDS011;30723;51.206;3.326;2023-04-12T14:33:25;1.88;;;0.75;;
44989;SDS011;30723;51.206;3.326;2023-04-12T14:35:52;0.98;;;0.43;;
44989;SDS011;30723;51.206;3.326;2023-04-12T14:38:18;1.20;;;0.43;;
44989;SDS011;30723;51.206;3.326;2023-04-12T14:40:44;4.63;;;0.38;;
44989;SDS011;30723;51.206;3.326;2023-04-12T14:43:09;7.35;;;1.00;;
44989;SDS011;30723;51.206;3.326;2023-04-12T14:45:36;5.82;;;0.95;;
44989;SDS011;30723;51.206;3.326;2023-04-12T14:48:02;1.30;;;0.63;;
44989;SDS011;30723;51.206;3.326;2023-04-12T14:50:28;2.38;;;0.70;;
44989;SDS011;30723;51.206;3.326;2023-04-12T14:52:55;0.28;;;0.15;;
44989;SDS011;30723;51.206;3.326;2023-04-12T14:55:21;9.48;;;0.80;;
44989;SDS011;30723;51.206;3.326;2023-04-12T14:57:50;6.85;;;2.15;;
44989;SDS011;30723;51.206;3.326;2023-04-12T15:00:16;5.68;;;0.35;;
44989;SDS011;30723;51.206;3.326;2023-04-12T15:02:44;3.60;;;0.68;;
44989;SDS011;30723;51.206;3.326;2023-04-12T15:05:12;0.05;;;0.05;;
44989;SDS011;30723;51.206;3.326;2023-04-12T15:07:38;1.00;;;0.30;;
44989;SDS011;30723;51.206;3.326;2023-04-12T15:10:04;6.43;;;1.08;;
44989;SDS011;30723;51.206;3.326;2023-04-12T15:12:30;0.10;;;0.10;;
44989;SDS011;30723;51.206;3.326;2023-04-12T15:14:59;1.38;;;0.82;;
44989;SDS011;30723;51.206;3.326;2023-04-12T15:17:27;1.85;;;0.40;;
44989;SDS011;30723;51.206;3.326;2023-04-12T15:19:55;2.38;;;0.43;;
44989;SDS011;30723;51.206;3.326;2023-04-12T15:22:22;0.60;;;0.28;;
44989;SDS011;30723;51.206;3.326;2023-04-12T15:24:51;6.47;;;0.93;;
44989;SDS011;30723;51.206;3.326;2023-04-12T15:27:17;3.65;;;0.88;;
44989;SDS011;30723;51.206;3.326;2023-04-12T15:29:43;0.57;;;0.30;;
44989;SDS011;30723;51.206;3.326;2023-04-12T15:32:09;2.13;;;0.38;;